Time;durP1;ratioP1;P1;durP2;ratioP2;P2;SDS_P1;SDS_P2;PMS_P1;PMS_P2;Temp;Humidity;BMP_temperature;BMP_pressure;BME280_temperature;BME280_humidity;BME280_pressure;Samples;Min_cycle;Max_cycle;Signal;HPM_P1;HPM_P2
2022/03/09 00:00:29;;;;;;;5.72;2.45;;;4.40;61.80;;;;;;5011561;28;20104;-69
2022/03/09 00:02:55;;;;;;;5.18;2.45;;;4.40;62.00;;;;;;5010125;28;20036;-69
2022/03/09 00:05:20;;;;;;;12.27;2.92;;;4.40;62.50;;;;;;5009941;28;20025;-69
2022/03/09 00:07:46;;;;;;;6.65;2.60;;;4.30;62.80;;;;;;5010206;28;20104;-68
2022/03/09 00:10:11;;;;;;;5.07;2.72;;;4.30;63.10;;;;;;5011084;28;20092;-70
2022/03/09 00:12:37;;;;;;;5.25;2.38;;;4.30;62.70;;;;;;5011513;28;20025;-68
2022/03/09 00:15:03;;;;;;;8.10;2.30;;;4.30;62.90;;;;;;5010050;28;20026;-69
2022/03/09 00:17:28;;;;;;;4.72;2.60;;;4.30;62.70;;;;;;5011064;28;20449;-69
2022/03/09 00:19:54;;;;;;;6.25;2.50;;;4.20;63.10;;;;;;5011142;28;20048;-68
2022/03/09 00:22:20;;;;;;;5.93;2.45;;;4.30;62.30;;;;;;5011005;28;20065;-69
2022/03/09 00:24:45;;;;;;;5.03;2.35;;;4.30;62.90;;;;;;5010951;28;20026;-69
2022/03/09 00:27:11;;;;;;;5.35;2.40;;;4.20;63.30;;;;;;5011354;28;20041;-70
2022/03/09 00:29:37;;;;;;;7.80;2.55;;;4.20;63.20;;;;;;5010996;28;20048;-68
2022/03/09 00:32:04;;;;;;;5.80;2.38;;;4.10;62.90;;;;;;5013031;28;20181;-68
2022/03/09 00:34:30;;;;;;;6.15;2.72;;;4.10;63.00;;;;;;5014880;28;20044;-69
2022/03/09 00:36:55;;;;;;;7.22;2.90;;;4.10;63.30;;;;;;5014690;28;20021;-69
2022/03/09 00:39:21;;;;;;;3.80;2.30;;;4.10;63.30;;;;;;5015175;28;20022;-69
2022/03/09 00:41:46;;;;;;;6.43;2.15;;;4.10;63.00;;;;;;5014841;28;20026;-69
2022/03/09 00:44:12;;;;;;;7.43;2.70;;;4.10;63.30;;;;;;5014671;28;20030;-68
2022/03/09 00:46:37;;;;;;;8.35;3.20;;;4.20;63.50;;;;;;5014417;28;20125;-68
2022/03/09 00:49:03;;;;;;;11.45;2.88;;;4.10;63.70;;;;;;5014635;28;20448;-69
2022/03/09 00:51:32;;;;;;;8.68;2.78;;;4.10;64.30;;;;;;5015022;28;20045;-69
2022/03/09 00:53:57;;;;;;;8.45;2.88;;;4.00;64.40;;;;;;5013519;28;20236;-68
2022/03/09 00:56:23;;;;;;;5.90;2.67;;;4.10;64.60;;;;;;5014434;28;20030;-69
2022/03/09 00:58:48;;;;;;;9.70;2.85;;;4.00;64.90;;;;;;5014741;28;20048;-69
2022/03/09 01:01:14;;;;;;;6.03;3.13;;;3.90;65.10;;;;;;5014612;28;20042;-68
2022/03/09 01:03:41;;;;;;;6.43;3.17;;;4.00;64.50;;;;;;5014463;28;20400;-69
2022/03/09 01:06:06;;;;;;;6.32;2.97;;;3.90;64.70;;;;;;5014779;28;20411;-69
2022/03/09 01:08:32;;;;;;;7.13;2.80;;;3.90;64.70;;;;;;5014110;28;20121;-68
2022/03/09 01:10:58;;;;;;;10.90;2.85;;;3.90;64.40;;;;;;5014307;28;20026;-69
2022/03/09 01:13:23;;;;;;;7.05;2.70;;;4.00;64.50;;;;;;5014354;28;20049;-69
2022/03/09 01:15:50;;;;;;;6.57;2.88;;;3.90;64.70;;;;;;5014335;28;20026;-69
2022/03/09 01:18:16;;;;;;;6.47;3.00;;;3.90;65.20;;;;;;5014501;28;20025;-68
2022/03/09 01:20:42;;;;;;;7.78;2.88;;;3.90;65.10;;;;;;5012937;28;20061;-68
2022/03/09 01:23:07;;;;;;;8.52;2.67;;;4.00;65.50;;;;;;5013897;28;20033;-68
2022/03/09 01:25:33;;;;;;;7.40;2.72;;;3.90;65.70;;;;;;5014190;28;20041;-68
2022/03/09 01:27:58;;;;;;;6.32;2.85;;;3.90;65.80;;;;;;5014084;28;20048;-68
2022/03/09 01:30:24;;;;;;;10.55;3.45;;;3.80;65.90;;;;;;5014339;28;20041;-68
2022/03/09 01:32:51;;;;;;;8.45;3.33;;;3.80;66.10;;;;;;5013770;28;20034;-69
2022/03/09 01:35:18;;;;;;;6.15;2.30;;;3.80;66.20;;;;;;5013798;28;20400;-69
2022/03/09 01:37:45;;;;;;;10.40;3.45;;;3.80;66.20;;;;;;5013798;28;20033;-68
2022/03/09 01:40:12;;;;;;;8.48;3.05;;;3.90;66.00;;;;;;5013612;28;20463;-68
2022/03/09 01:42:38;;;;;;;5.60;2.95;;;3.80;66.30;;;;;;5013108;28;20062;-68
2022/03/09 01:45:07;;;;;;;11.57;3.45;;;3.80;66.30;;;;;;5013693;28;20056;-68
2022/03/09 01:47:33;;;;;;;5.38;2.60;;;3.70;66.50;;;;;;5013482;28;20049;-69
2022/03/09 01:49:59;;;;;;;8.82;3.15;;;3.70;66.60;;;;;;5013557;28;20037;-68
2022/03/09 01:52:25;;;;;;;9.18;3.03;;;3.60;66.80;;;;;;5013445;28;20030;-69
2022/03/09 01:54:52;;;;;;;7.90;3.08;;;3.60;66.90;;;;;;5013239;28;20030;-68
2022/03/09 01:57:18;;;;;;;8.43;2.90;;;3.70;67.00;;;;;;5013582;28;20028;-68
2022/03/09 01:59:44;;;;;;;5.78;3.33;;;3.60;66.30;;;;;;5013198;28;20091;-68
2022/03/09 02:02:09;;;;;;;5.82;3.10;;;3.50;67.50;;;;;;5013137;28;20046;-69
2022/03/09 02:04:36;;;;;;;5.18;2.53;;;3.50;68.00;;;;;;5013145;28;20026;-69
2022/03/09 02:07:01;;;;;;;11.73;3.72;;;3.40;68.20;;;;;;5013132;28;20034;-69
2022/03/09 02:09:43;;;;;;;12.32;3.35;;;3.40;68.70;;;;;;5012633;28;20360;-68
2022/03/09 02:12:11;;;;;;;5.88;3.28;;;3.50;68.90;;;;;;5013204;28;20022;-70
2022/03/09 02:14:38;;;;;;;17.80;3.97;;;3.40;68.80;;;;;;5013271;28;20117;-69
2022/03/09 02:17:10;;;;;;;6.47;3.17;;;3.30;68.70;;;;;;5011832;28;20030;-70
2022/03/09 02:19:36;;;;;;;8.55;3.08;;;3.30;68.90;;;;;;5013320;28;20117;-70
2022/03/09 02:22:20;;;;;;;8.75;3.08;;;3.30;69.30;;;;;;5013172;28;20041;-70
2022/03/09 02:24:50;;;;;;;6.82;3.13;;;3.30;69.40;;;;;;5011709;28;20048;-70
2022/03/09 02:27:16;;;;;;;9.57;3.13;;;3.20;69.70;;;;;;5012178;28;20030;-69
2022/03/09 02:29:42;;;;;;;6.32;2.90;;;3.20;69.80;;;;;;5012912;28;20269;-70
2022/03/09 02:32:08;;;;;;;6.43;2.78;;;3.10;69.70;;;;;;5012742;28;20488;-70
2022/03/09 02:34:34;;;;;;;5.93;3.28;;;3.10;69.40;;;;;;5012714;28;20033;-70
2022/03/09 02:37:00;;;;;;;6.35;3.30;;;3.10;70.20;;;;;;5015141;28;20124;-69
2022/03/09 02:39:26;;;;;;;7.28;2.90;;;3.10;70.30;;;;;;5032816;28;20033;-70
2022/03/09 02:41:52;;;;;;;5.53;2.90;;;3.00;70.20;;;;;;5032346;28;20045;-69
2022/03/09 02:44:18;;;;;;;8.13;3.33;;;2.90;70.40;;;;;;5032488;28;20087;-69
2022/03/09 02:46:44;;;;;;;7.90;2.97;;;3.00;70.20;;;;;;5030953;28;20555;-70
2022/03/09 02:49:09;;;;;;;5.32;3.00;;;2.90;70.40;;;;;;5031999;28;20176;-70
2022/03/09 02:51:35;;;;;;;5.88;2.88;;;2.90;70.80;;;;;;5032901;28;20114;-70
2022/03/09 02:54:01;;;;;;;6.45;2.97;;;2.90;71.00;;;;;;5031766;28;20033;-70
2022/03/09 02:56:27;;;;;;;10.55;3.42;;;2.90;71.30;;;;;;5032041;28;20057;-70
2022/03/09 02:58:53;;;;;;;12.27;3.45;;;3.00;71.10;;;;;;5030861;28;20030;-69
2022/03/09 03:01:18;;;;;;;11.50;3.65;;;3.10;71.70;;;;;;5031938;28;20047;-69
2022/03/09 03:03:44;;;;;;;8.93;3.42;;;3.10;71.10;;;;;;5032103;28;20056;-69
2022/03/09 03:06:11;;;;;;;5.47;3.13;;;3.20;70.20;;;;;;5032335;28;20113;-69
2022/03/09 03:08:40;;;;;;;7.55;3.28;;;3.30;69.70;;;;;;5031887;28;20045;-69
2022/03/09 03:11:10;;;;;;;6.82;3.15;;;3.50;69.70;;;;;;5032019;28;20351;-69
2022/03/09 03:13:37;;;;;;;5.72;3.08;;;3.40;69.80;;;;;;5032040;28;20033;-70
2022/03/09 03:16:03;;;;;;;7.10;3.35;;;3.40;71.00;;;;;;5031589;28;20459;-70
2022/03/09 03:18:29;;;;;;;10.48;3.35;;;3.40;70.90;;;;;;5032228;28;20107;-68
2022/03/09 03:20:55;;;;;;;11.70;2.95;;;3.40;71.10;;;;;;5031863;28;20049;-70
2022/03/09 03:23:25;;;;;;;6.78;3.33;;;3.30;71.00;;;;;;5031803;28;20083;-70
2022/03/09 03:25:51;;;;;;;8.27;2.75;;;3.30;71.20;;;;;;5031671;28;20042;-69
2022/03/09 03:28:18;;;;;;;7.50;3.53;;;3.30;71.90;;;;;;5031567;28;20037;-70
2022/03/09 03:30:43;;;;;;;7.07;3.05;;;3.30;71.80;;;;;;5031291;28;20025;-70
2022/03/09 03:33:09;;;;;;;7.07;3.53;;;3.30;71.00;;;;;;5032398;28;20044;-69
2022/03/09 03:35:35;;;;;;;7.68;3.20;;;3.30;71.70;;;;;;5031185;28;20525;-68
2022/03/09 03:38:01;;;;;;;9.25;3.53;;;3.20;72.10;;;;;;5031283;28;20029;-70
2022/03/09 03:40:26;;;;;;;9.57;3.30;;;3.20;72.10;;;;;;5031220;28;20167;-69
2022/03/09 03:42:52;;;;;;;8.07;3.67;;;3.40;71.30;;;;;;5030228;28;20075;-70
2022/03/09 03:45:17;;;;;;;7.47;3.55;;;3.30;71.30;;;;;;5031845;28;20431;-69
2022/03/09 03:47:43;;;;;;;7.28;3.40;;;3.20;71.20;;;;;;5031005;28;20117;-70
2022/03/09 03:50:09;;;;;;;8.68;3.42;;;3.20;70.90;;;;;;5031003;28;20455;-69
2022/03/09 03:52:34;;;;;;;11.48;4.15;;;3.20;70.90;;;;;;5031082;28;20116;-69
2022/03/09 03:55:00;;;;;;;8.63;3.53;;;3.10;71.00;;;;;;5031018;28;20035;-69
2022/03/09 03:57:26;;;;;;;6.85;3.53;;;3.10;71.20;;;;;;5031574;28;20100;-69
2022/03/09 03:59:51;;;;;;;9.77;3.10;;;3.10;71.20;;;;;;5031422;28;20053;-68
2022/03/09 04:02:17;;;;;;;8.50;3.67;;;3.10;71.40;;;;;;5030916;28;20037;-69
2022/03/09 04:04:43;;;;;;;7.07;3.60;;;3.20;71.40;;;;;;5030800;28;20537;-70
2022/03/09 04:07:08;;;;;;;11.00;3.67;;;3.10;71.60;;;;;;5029140;28;20045;-70
2022/03/09 04:09:34;;;;;;;18.13;3.75;;;3.00;72.20;;;;;;5030315;28;20519;-69
2022/03/09 04:11:59;;;;;;;8.32;3.60;;;3.00;72.50;;;;;;5030872;28;20107;-70
2022/03/09 04:14:25;;;;;;;8.23;3.42;;;2.90;72.70;;;;;;5030782;28;20551;-70
2022/03/09 04:16:50;;;;;;;10.27;3.40;;;2.80;73.10;;;;;;5030773;28;20025;-69
2022/03/09 04:19:16;;;;;;;15.25;3.30;;;2.80;73.30;;;;;;5030762;28;20033;-70
2022/03/09 04:21:42;;;;;;;8.90;3.80;;;2.80;73.40;;;;;;5030730;28;20436;-69
2022/03/09 04:24:07;;;;;;;7.57;3.83;;;2.80;73.50;;;;;;5031209;28;20022;-69
2022/03/09 04:26:33;;;;;;;6.82;3.40;;;2.80;73.30;;;;;;5030523;28;20055;-70
2022/03/09 04:28:59;;;;;;;8.57;3.55;;;2.70;73.50;;;;;;5030649;28;20371;-69
2022/03/09 04:31:25;;;;;;;9.38;3.63;;;2.70;73.40;;;;;;5030833;28;20056;-69
2022/03/09 04:33:50;;;;;;;11.25;3.95;;;2.70;73.60;;;;;;5030570;28;20025;-69
2022/03/09 04:36:16;;;;;;;7.05;3.63;;;2.70;73.70;;;;;;5031303;28;20036;-70
2022/03/09 04:38:42;;;;;;;6.65;3.10;;;2.70;73.40;;;;;;5030723;28;20530;-70
2022/03/09 04:41:08;;;;;;;7.45;3.47;;;2.70;73.30;;;;;;5030472;28;20394;-69
2022/03/09 04:43:33;;;;;;;8.75;3.55;;;2.70;73.40;;;;;;5030378;28;20030;-69
2022/03/09 04:45:59;;;;;;;7.88;3.55;;;2.70;73.50;;;;;;5030353;28;20037;-70
2022/03/09 04:48:25;;;;;;;11.80;3.80;;;2.70;73.40;;;;;;5030524;28;20061;-70
2022/03/09 04:50:50;;;;;;;13.10;3.97;;;2.70;73.50;;;;;;5030256;28;20504;-71
2022/03/09 04:53:16;;;;;;;12.65;3.92;;;2.70;73.70;;;;;;5030405;28;20171;-71
2022/03/09 04:55:41;;;;;;;11.57;3.53;;;2.80;73.60;;;;;;5030242;28;20119;-70
2022/03/09 04:58:07;;;;;;;13.43;3.63;;;2.60;73.80;;;;;;5030524;28;20045;-69
2022/03/09 05:00:32;;;;;;;10.88;3.50;;;2.60;74.10;;;;;;5029763;28;20014;-69
2022/03/09 05:02:58;;;;;;;17.95;4.15;;;2.60;74.30;;;;;;5030550;28;20055;-70
2022/03/09 05:05:24;;;;;;;7.00;3.47;;;2.50;74.30;;;;;;5030399;28;20059;-69
2022/03/09 05:07:49;;;;;;;12.00;3.70;;;2.50;74.80;;;;;;5030165;28;20384;-70
2022/03/09 05:10:15;;;;;;;8.80;3.63;;;2.50;75.10;;;;;;5030355;28;20418;-70
2022/03/09 05:12:40;;;;;;;8.70;3.53;;;2.50;75.20;;;;;;5030569;28;20018;-68
2022/03/09 05:15:06;;;;;;;7.25;3.15;;;2.60;74.80;;;;;;5030856;28;20045;-70
2022/03/09 05:17:32;;;;;;;11.60;3.97;;;2.70;73.80;;;;;;5031055;28;20061;-70
2022/03/09 05:19:58;;;;;;;11.35;4.00;;;2.70;74.30;;;;;;5033783;28;20034;-70
2022/03/09 05:22:24;;;;;;;7.85;3.83;;;2.70;74.60;;;;;;5032622;28;20191;-70
2022/03/09 05:24:49;;;;;;;11.63;3.67;;;2.60;74.60;;;;;;5033656;28;20431;-70
2022/03/09 05:27:15;;;;;;;8.48;3.30;;;2.70;74.40;;;;;;5034230;28;20025;-70
2022/03/09 05:29:41;;;;;;;7.40;3.45;;;2.70;74.50;;;;;;5033755;28;20134;-71
2022/03/09 05:32:07;;;;;;;6.78;3.17;;;2.60;74.70;;;;;;5032265;28;20045;-69
2022/03/09 05:34:33;;;;;;;11.77;3.97;;;2.60;74.90;;;;;;5033470;28;20026;-71
2022/03/09 05:36:58;;;;;;;8.23;4.10;;;2.60;75.20;;;;;;5033374;28;21057;-70
2022/03/09 05:39:24;;;;;;;12.35;4.22;;;2.70;75.00;;;;;;5032927;28;20427;-70
2022/03/09 05:41:50;;;;;;;11.05;3.47;;;2.70;75.30;;;;;;5033475;28;20036;-70
2022/03/09 05:44:16;;;;;;;15.77;3.95;;;2.80;74.10;;;;;;5033424;28;20106;-71
2022/03/09 05:46:42;;;;;;;6.75;3.25;;;2.80;74.20;;;;;;5033183;28;20132;-70
2022/03/09 05:49:08;;;;;;;9.95;3.55;;;2.90;73.90;;;;;;5033226;28;20049;-71
2022/03/09 05:51:33;;;;;;;14.23;3.72;;;2.90;73.00;;;;;;5033601;28;20030;-71
2022/03/09 05:53:59;;;;;;;13.55;3.97;;;2.90;73.70;;;;;;5033146;28;20040;-70
2022/03/09 05:56:25;;;;;;;7.85;3.40;;;3.00;73.70;;;;;;5032993;28;20491;-72
2022/03/09 05:58:51;;;;;;;8.68;3.45;;;3.00;73.10;;;;;;5032927;28;20030;-70
2022/03/09 06:01:16;;;;;;;9.38;3.90;;;3.00;73.60;;;;;;5033066;28;20112;-70
2022/03/09 06:03:42;;;;;;;9.90;3.75;;;3.10;73.80;;;;;;5033245;28;20029;-71
2022/03/09 06:06:08;;;;;;;11.18;3.72;;;3.00;73.80;;;;;;5033396;28;20025;-70
2022/03/09 06:08:34;;;;;;;14.38;4.03;;;3.00;73.50;;;;;;5032969;28;20091;-70
2022/03/09 06:10:59;;;;;;;7.13;3.70;;;3.00;73.30;;;;;;5032896;28;20045;-69
2022/03/09 06:13:25;;;;;;;13.70;4.03;;;3.10;73.00;;;;;;5033031;28;20034;-68
2022/03/09 06:15:51;;;;;;;7.90;3.88;;;3.10;73.40;;;;;;5032764;28;20029;-69
2022/03/09 06:18:16;;;;;;;12.93;4.57;;;3.20;74.30;;;;;;5033022;28;20336;-69
2022/03/09 06:20:42;;;;;;;18.08;4.18;;;3.10;75.10;;;;;;5032634;28;20427;-70
2022/03/09 06:23:07;;;;;;;11.05;4.60;;;3.10;75.10;;;;;;5032673;28;20534;-70
2022/03/09 06:25:34;;;;;;;10.82;4.25;;;3.00;75.80;;;;;;5032540;28;20123;-70
2022/03/09 06:28:00;;;;;;;11.23;4.25;;;3.00;76.40;;;;;;5032489;28;20048;-68
2022/03/09 06:30:26;;;;;;;13.40;4.55;;;3.00;76.30;;;;;;5032239;28;20029;-70
2022/03/09 06:32:51;;;;;;;10.80;4.47;;;3.00;76.80;;;;;;5031291;28;20076;-70
2022/03/09 06:35:17;;;;;;;13.00;4.40;;;2.90;76.70;;;;;;5032272;28;20068;-70
2022/03/09 06:37:43;;;;;;;21.40;4.40;;;3.00;76.80;;;;;;5032289;28;20124;-71
2022/03/09 06:40:09;;;;;;;11.48;4.35;;;2.90;77.20;;;;;;5032040;28;20033;-70
2022/03/09 06:42:35;;;;;;;13.45;4.43;;;2.90;77.30;;;;;;5032727;28;20124;-70
2022/03/09 06:45:01;;;;;;;11.48;4.65;;;3.00;77.00;;;;;;5032313;28;20458;-70
2022/03/09 06:47:26;;;;;;;14.73;4.40;;;3.00;76.50;;;;;;5031800;28;20053;-70
2022/03/09 06:49:53;;;;;;;8.90;3.75;;;3.20;75.60;;;;;;5032072;28;20592;-70
2022/03/09 06:52:19;;;;;;;10.18;3.85;;;3.20;75.00;;;;;;5031994;28;20116;-70
2022/03/09 06:54:44;;;;;;;12.93;3.58;;;3.30;74.70;;;;;;5031721;28;20096;-70
2022/03/09 06:57:10;;;;;;;14.23;4.93;;;3.40;75.30;;;;;;5032369;28;20350;-69
2022/03/09 06:59:37;;;;;;;11.13;4.20;;;3.40;76.30;;;;;;5031608;28;20692;-69
2022/03/09 07:02:04;;;;;;;14.40;4.10;;;3.40;75.80;;;;;;5031678;28;20475;-70
2022/03/09 07:04:29;;;;;;;22.90;7.47;;;3.50;75.70;;;;;;5031922;28;20134;-69
2022/03/09 07:06:55;;;;;;;18.83;5.70;;;3.50;75.70;;;;;;5031588;28;20557;-69
2022/03/09 07:09:20;;;;;;;33.95;8.27;;;3.50;75.80;;;;;;5012400;28;20476;-70
2022/03/09 07:11:46;;;;;;;18.40;6.75;;;3.60;76.30;;;;;;5012390;28;20336;-70
2022/03/09 07:14:12;;;;;;;17.92;6.03;;;3.60;75.80;;;;;;5012120;28;20022;-70
2022/03/09 07:16:37;;;;;;;14.27;6.38;;;3.70;75.30;;;;;;5011722;28;20042;-70
2022/03/09 07:19:03;;;;;;;16.33;6.43;;;3.80;74.60;;;;;;5011796;28;20037;-69
2022/03/09 07:21:29;;;;;;;16.05;6.32;;;4.00;74.00;;;;;;5012232;28;20043;-69
2022/03/09 07:23:55;;;;;;;16.45;6.40;;;3.90;73.80;;;;;;5011746;28;20145;-70
2022/03/09 07:26:20;;;;;;;32.47;10.73;;;4.00;73.60;;;;;;5011484;28;20321;-69
2022/03/09 07:28:46;;;;;;;20.10;6.68;;;4.10;73.30;;;;;;5011489;28;20123;-69
2022/03/09 07:31:11;;;;;;;11.35;4.40;;;4.10;73.30;;;;;;5011625;28;20065;-69
2022/03/09 07:33:37;;;;;;;26.67;5.10;;;4.20;73.10;;;;;;5011901;28;20033;-70
2022/03/09 07:36:06;;;;;;;11.73;4.10;;;4.30;72.40;;;;;;5011269;28;20455;-69
2022/03/09 07:38:34;;;;;;;17.80;4.40;;;4.40;72.90;;;;;;5011323;28;20068;-68
2022/03/09 07:41:00;;;;;;;13.23;5.03;;;4.50;73.10;;;;;;5010502;28;20069;-70
2022/03/09 07:43:25;;;;;;;16.50;4.50;;;4.60;73.10;;;;;;5011352;28;20053;-69
2022/03/09 07:45:51;;;;;;;13.35;4.38;;;4.60;72.40;;;;;;5011238;28;20030;-69
2022/03/09 07:48:16;;;;;;;14.32;4.57;;;4.70;72.30;;;;;;5011457;28;20046;-70
2022/03/09 07:50:42;;;;;;;11.25;4.55;;;4.80;72.00;;;;;;5011295;28;20092;-69
2022/03/09 07:53:08;;;;;;;14.50;5.22;;;4.90;71.80;;;;;;5011484;28;20113;-70
2022/03/09 07:55:34;;;;;;;26.10;6.63;;;5.00;72.50;;;;;;5011114;28;20034;-69
2022/03/09 07:58:00;;;;;;;22.00;5.60;;;5.00;71.70;;;;;;5009834;28;20466;-70
2022/03/09 08:00:27;;;;;;;13.75;5.35;;;5.10;72.00;;;;;;5011631;28;20022;-70
2022/03/09 08:02:52;;;;;;;10.38;4.65;;;5.20;71.60;;;;;;5009993;28;20099;-69
2022/03/09 08:05:18;;;;;;;14.48;5.00;;;5.40;70.70;;;;;;5011005;28;20463;-69
2022/03/09 08:07:45;;;;;;;21.50;5.72;;;5.50;71.40;;;;;;5010923;28;20057;-69
2022/03/09 08:10:11;;;;;;;19.00;4.50;;;5.50;70.60;;;;;;5010939;28;20104;-70
2022/03/09 08:12:37;;;;;;;18.55;5.28;;;5.60;70.40;;;;;;5011473;28;20022;-70
2022/03/09 08:15:04;;;;;;;18.80;5.47;;;5.70;70.70;;;;;;5010951;28;20030;-69
2022/03/09 08:17:30;;;;;;;19.15;6.55;;;5.80;70.20;;;;;;5010883;28;20033;-69
2022/03/09 08:19:55;;;;;;;18.63;6.93;;;6.00;69.90;;;;;;5011654;28;20045;-69
2022/03/09 08:22:22;;;;;;;14.60;5.13;;;6.10;69.30;;;;;;5011084;28;20137;-69
2022/03/09 08:24:47;;;;;;;15.98;5.15;;;6.10;68.80;;;;;;5010884;28;20035;-68
2022/03/09 08:27:13;;;;;;;8.88;4.78;;;6.30;68.80;;;;;;5010634;28;20440;-70
2022/03/09 08:29:39;;;;;;;14.95;4.93;;;6.40;68.50;;;;;;5011921;28;20125;-69
2022/03/09 08:32:05;;;;;;;12.77;5.25;;;6.50;68.20;;;;;;5011961;28;20511;-69
2022/03/09 08:34:31;;;;;;;16.00;5.30;;;6.60;67.70;;;;;;5012132;28;20030;-69
2022/03/09 08:36:56;;;;;;;17.88;5.22;;;6.70;66.90;;;;;;5011275;28;20014;-71
2022/03/09 08:39:22;;;;;;;15.90;5.30;;;6.80;67.00;;;;;;5011014;28;20018;-70
2022/03/09 08:41:47;;;;;;;11.45;4.80;;;6.90;66.90;;;;;;5011520;28;20137;-70
2022/03/09 08:44:13;;;;;;;16.63;6.82;;;7.00;66.10;;;;;;5011356;28;20480;-70
2022/03/09 08:46:38;;;;;;;20.73;7.85;;;7.10;65.80;;;;;;5011424;28;20375;-71
2022/03/09 08:49:04;;;;;;;18.02;5.35;;;7.20;65.50;;;;;;5011342;28;20124;-69
2022/03/09 08:51:30;;;;;;;11.00;5.38;;;7.30;64.40;;;;;;5010409;28;20026;-70
2022/03/09 08:53:55;;;;;;;13.13;4.95;;;7.40;64.00;;;;;;5014855;28;20048;-71
2022/03/09 08:56:21;;;;;;;10.73;5.38;;;7.50;63.50;;;;;;5014546;28;20022;-70
2022/03/09 08:58:46;;;;;;;11.15;5.32;;;7.70;63.30;;;;;;5015149;28;20123;-72
2022/03/09 09:01:13;;;;;;;11.18;4.95;;;8.00;62.60;;;;;;5015402;28;20524;-72
2022/03/09 09:03:39;;;;;;;12.30;5.00;;;8.80;61.30;;;;;;5016017;28;20026;-71
2022/03/09 09:06:04;;;;;;;10.57;4.82;;;10.60;58.60;;;;;;5015496;28;20049;-70
2022/03/09 09:08:30;;;;;;;12.93;4.75;;;12.50;56.60;;;;;;5015223;28;20083;-71
2022/03/09 09:10:56;;;;;;;13.27;4.90;;;14.80;53.30;;;;;;5014644;28;20037;-71
2022/03/09 09:13:22;;;;;;;10.20;5.03;;;16.20;49.30;;;;;;5014395;28;20030;-72
2022/03/09 09:15:49;;;;;;;16.45;5.25;;;17.60;47.20;;;;;;5014019;28;20080;-72
2022/03/09 09:18:15;;;;;;;9.25;5.18;;;18.70;43.30;;;;;;5014476;28;20029;-70
2022/03/09 09:20:40;;;;;;;13.40;5.13;;;19.90;44.00;;;;;;5013728;28;20030;-71
2022/03/09 09:23:06;;;;;;;9.07;4.93;;;20.60;39.60;;;;;;5013808;28;20535;-71
2022/03/09 09:25:32;;;;;;;8.68;5.32;;;20.90;37.70;;;;;;5013821;28;20041;-73
2022/03/09 09:27:58;;;;;;;8.20;5.10;;;21.70;36.80;;;;;;5013492;28;20084;-71
2022/03/09 09:30:26;;;;;;;8.50;5.07;;;21.90;36.40;;;;;;5014090;28;20021;-70
2022/03/09 09:32:52;;;;;;;9.40;5.22;;;22.30;34.50;;;;;;5012679;28;20034;-70
2022/03/09 09:35:18;;;;;;;8.07;4.45;;;22.90;34.80;;;;;;5013491;28;20447;-70
2022/03/09 09:37:43;;;;;;;8.95;4.75;;;23.40;33.50;;;;;;5013632;28;20034;-71
2022/03/09 09:40:13;;;;;;;9.70;5.30;;;23.70;33.40;;;;;;5013462;28;20704;-71
2022/03/09 09:42:40;;;;;;;13.60;6.55;;;24.30;32.30;;;;;;5013973;28;20072;-71
2022/03/09 09:45:07;;;;;;;9.68;5.30;;;23.90;30.90;;;;;;5013674;28;20096;-71
2022/03/09 09:47:33;;;;;;;10.40;5.95;;;24.70;31.60;;;;;;5013229;28;20104;-71
2022/03/09 09:49:59;;;;;;;10.05;5.65;;;24.80;29.90;;;;;;5013184;28;20042;-70
2022/03/09 09:52:27;;;;;;;8.68;5.32;;;24.90;30.00;;;;;;5013053;28;20117;-71
2022/03/09 09:54:54;;;;;;;7.57;5.30;;;25.40;30.30;;;;;;5013682;28;20094;-72
2022/03/09 09:57:21;;;;;;;11.20;5.43;;;25.70;30.00;;;;;;5013672;28;20599;-71
2022/03/09 09:59:47;;;;;;;10.23;5.20;;;25.80;29.50;;;;;;5013516;28;20104;-71
2022/03/09 10:02:13;;;;;;;6.35;4.60;;;25.90;28.70;;;;;;5013136;28;20034;-72
2022/03/09 10:04:40;;;;;;;7.53;4.72;;;26.20;30.10;;;;;;5012079;28;20038;-70
2022/03/09 10:07:05;;;;;;;8.90;4.73;;;26.20;28.60;;;;;;5013119;28;20036;-70
2022/03/09 10:09:39;;;;;;;13.88;7.18;;;26.20;28.20;;;;;;5013375;28;20022;-73
2022/03/09 10:12:06;;;;;;;11.32;5.90;;;26.40;28.50;;;;;;5012089;28;20494;-74
2022/03/09 10:14:53;;;;;;;7.53;4.43;;;26.10;29.20;;;;;;5013089;28;20297;-74
2022/03/09 10:17:27;;;;;;;13.88;5.10;;;26.20;28.80;;;;;;5011774;28;20045;-74
2022/03/09 10:19:55;;;;;;;6.18;4.50;;;26.10;28.40;;;;;;5012802;28;20038;-75
2022/03/09 10:22:41;;;;;;;8.88;5.18;;;26.50;29.20;;;;;;5013019;28;20030;-72
2022/03/09 10:25:09;;;;;;;9.18;4.88;;;26.70;27.20;;;;;;5012698;28;20025;-75
2022/03/09 10:27:38;;;;;;;8.18;4.75;;;26.30;26.90;;;;;;5011977;28;20034;-74
2022/03/09 10:30:13;;;;;;;8.90;4.93;;;26.40;27.40;;;;;;5013258;28;20036;-73
2022/03/09 10:33:00;;;;;;;7.60;4.82;;;26.80;27.30;;;;;;5013058;28;20030;-72
2022/03/09 10:35:29;;;;;;;6.60;4.70;;;27.00;27.00;;;;;;5025841;28;20475;-73
2022/03/09 10:37:55;;;;;;;8.77;5.50;;;26.90;26.70;;;;;;5032638;28;20488;-73
2022/03/09 10:40:22;;;;;;;7.00;4.55;;;26.80;27.10;;;;;;5032417;28;20060;-73
2022/03/09 10:42:49;;;;;;;9.38;5.00;;;27.40;26.80;;;;;;5032668;28;20099;-73
2022/03/09 10:45:17;;;;;;;7.25;4.80;;;27.40;26.80;;;;;;5033071;28;20091;-72
2022/03/09 10:47:45;;;;;;;9.23;5.18;;;27.40;26.00;;;;;;5032114;28;20042;-72
2022/03/09 10:50:20;;;;;;;9.40;5.00;;;26.90;26.00;;;;;;5031943;28;20117;-73
2022/03/09 10:52:57;;;;;;;13.68;8.52;;;27.50;26.60;;;;;;5032148;28;20091;-72
2022/03/09 10:55:27;;;;;;;6.47;4.70;;;28.40;26.00;;;;;;5032366;28;20389;-73
2022/03/09 10:58:05;;;;;;;8.57;5.47;;;28.40;25.50;;;;;;5032145;28;20025;-73
2022/03/09 11:00:51;;;;;;;8.98;5.10;;;27.40;25.30;;;;;;5032891;28;20102;-71
2022/03/09 11:03:19;;;;;;;6.30;4.22;;;27.20;25.30;;;;;;5032229;28;20409;-72
2022/03/09 11:06:01;;;;;;;7.35;4.40;;;27.50;25.30;;;;;;5032656;28;20416;-71
2022/03/09 11:08:34;;;;;;;7.32;4.70;;;27.90;26.10;;;;;;5031954;28;20041;-70
2022/03/09 11:11:00;;;;;;;7.28;4.78;;;27.70;25.30;;;;;;5031587;28;20351;-71
2022/03/09 11:13:28;;;;;;;9.70;5.45;;;27.80;24.60;;;;;;5031596;28;20033;-71
2022/03/09 11:15:54;;;;;;;;;;;27.50;24.90;;;;;;5030782;28;20021;-71
2022/03/09 11:18:22;;;;;;;8.32;4.57;;;27.10;24.70;;;;;;5032170;28;20127;-72
2022/03/09 11:20:50;;;;;;;7.03;4.85;;;27.00;25.20;;;;;;5031656;28;20128;-72
2022/03/09 11:23:17;;;;;;;;;;;26.80;24.50;;;;;;5030639;28;20053;-73
2022/03/09 11:26:08;;;;;;;5.83;4.40;;;27.00;25.00;;;;;;5031699;28;19959;-71
2022/03/09 11:28:44;;;;;;;5.70;4.45;;;27.00;24.40;;;;;;5030927;28;20312;-72
2022/03/09 11:31:15;;;;;;;15.07;7.85;;;26.60;24.80;;;;;;5031142;28;20033;-73
2022/03/09 11:33:53;;;;;;;8.30;5.53;;;26.40;24.60;;;;;;5031357;28;20100;-73
2022/03/09 11:36:22;;;;;;;9.25;5.30;;;26.20;24.60;;;;;;5033210;28;20033;-71
2022/03/09 11:38:49;;;;;;;8.15;5.50;;;26.60;25.10;;;;;;5032224;28;20033;-72
2022/03/09 11:41:14;;;;;;;7.87;5.10;;;26.30;25.00;;;;;;5031346;28;20029;-71
2022/03/09 11:43:40;;;;;;;7.55;5.18;;;25.90;25.40;;;;;;5031809;28;20259;-71
2022/03/09 11:46:06;;;;;;;8.77;5.35;;;26.20;25.90;;;;;;5031797;28;20483;-72
2022/03/09 11:48:59;;;;;;;7.70;5.80;;;26.10;25.80;;;;;;5031621;28;20064;-73
2022/03/09 11:51:27;;;;;;;8.68;6.00;;;25.30;25.50;;;;;;5031165;28;20128;-71
2022/03/09 11:53:54;;;;;;;;;;;24.60;26.60;;;;;;5032177;28;20108;-71
2022/03/09 11:56:39;;;;;;;9.60;5.70;;;24.20;26.80;;;;;;5031665;28;20251;-72
2022/03/09 11:59:24;;;;;;;10.38;6.32;;;23.60;27.50;;;;;;5031599;28;20251;-70
2022/03/09 12:01:58;;;;;;;8.73;5.70;;;23.10;27.10;;;;;;5031704;28;20036;-70
2022/03/09 12:04:42;;;;;;;8.93;5.95;;;22.70;27.30;;;;;;5031343;28;20064;-71
2022/03/09 12:07:34;;;;;;;10.05;5.68;;;21.80;27.90;;;;;;5029914;28;20364;-71
2022/03/09 12:10:06;;;;;;;10.82;7.00;;;21.40;28.30;;;;;;5030506;28;20034;-70
2022/03/09 12:12:34;;;;;;;9.15;5.93;;;21.20;28.70;;;;;;5031146;28;20029;-71
2022/03/09 12:15:05;;;;;;;10.45;5.88;;;20.90;28.70;;;;;;5031097;28;20639;-69
2022/03/09 12:17:38;;;;;;;12.73;6.35;;;20.70;28.60;;;;;;5030736;28;20095;-71
2022/03/09 12:20:28;;;;;;;11.43;6.05;;;20.40;28.60;;;;;;5029742;28;20358;-70
2022/03/09 12:22:57;;;;;;;10.93;6.18;;;19.70;28.90;;;;;;5030647;28;20502;-71
2022/03/09 12:25:40;;;;;;;9.98;5.97;;;19.40;29.40;;;;;;5029337;28;20488;-71
2022/03/09 12:28:24;;;;;;;9.57;5.60;;;19.30;29.80;;;;;;5032928;28;20072;-69
2022/03/09 12:30:57;;;;;;;11.32;5.82;;;18.90;29.90;;;;;;5034917;28;20021;-70
2022/03/09 12:33:35;;;;;;;13.38;6.47;;;18.80;30.40;;;;;;5035404;28;20104;-70
2022/03/09 12:36:22;;;;;;;16.88;8.25;;;18.70;30.80;;;;;;5034567;28;20497;-70
2022/03/09 12:39:05;;;;;;;11.07;5.72;;;18.70;30.90;;;;;;5034576;28;20083;-69
2022/03/09 12:41:40;;;;;;;15.13;5.95;;;18.50;32.00;;;;;;5034426;28;20029;-69
2022/03/09 12:44:09;;;;;;;9.75;5.80;;;18.30;32.90;;;;;;5034537;28;20051;-69
2022/03/09 12:46:36;;;;;;;10.40;6.00;;;18.20;34.10;;;;;;5034245;28;20032;-69
2022/03/09 12:49:10;;;;;;;9.55;6.13;;;18.10;32.40;;;;;;5034343;28;20350;-69
2022/03/09 12:51:37;;;;;;;8.10;5.47;;;18.10;31.10;;;;;;5034570;28;20108;-69